Time;durP1;ratioP1;P1;durP2;ratioP2;P2;SDS_P1;SDS_P2;PMS_P1;PMS_P2;Temp;Humidity;BMP_temperature;BMP_pressure;BME280_temperature;BME280_humidity;BME280_pressure;Samples;Min_cycle;Max_cycle;Signal;HPM_P1;HPM_P2
2023/03/06 00:01:31;;;;;;;2.13;1.35;;;2.70;99.90;;;;;;5092877;28;20048;-65
2023/03/06 00:03:58;;;;;;;2.92;1.10;;;2.50;99.90;;;;;;5090311;28;20048;-65
2023/03/06 00:06:24;;;;;;;1.73;0.80;;;2.40;99.90;;;;;;5093015;28;20044;-65
2023/03/06 00:08:51;;;;;;;1.73;0.90;;;2.20;99.90;;;;;;5072460;28;20051;-65
2023/03/06 00:11:18;;;;;;;2.05;0.85;;;2.20;99.90;;;;;;5092178;28;20505;-65
2023/03/06 00:13:46;;;;;;;3.78;0.95;;;2.10;99.90;;;;;;5074434;28;20051;-64
2023/03/06 00:16:13;;;;;;;2.35;1.00;;;2.00;99.90;;;;;;5074862;28;20097;-65
2023/03/06 00:18:42;;;;;;;1.35;0.90;;;2.00;99.90;;;;;;5071629;28;20044;-65
2023/03/06 00:21:09;;;;;;;4.18;1.00;;;1.80;99.90;;;;;;5092645;28;20040;-65
2023/03/06 00:23:36;;;;;;;2.85;1.02;;;1.80;99.90;;;;;;5074724;28;20461;-66
2023/03/06 00:26:06;;;;;;;2.92;1.17;;;1.80;99.90;;;;;;5074180;28;20048;-65
2023/03/06 00:28:33;;;;;;;2.83;0.90;;;1.80;99.90;;;;;;5076419;28;20101;-65
2023/03/06 00:31:02;;;;;;;2.40;1.10;;;1.80;99.90;;;;;;5076615;28;20048;-66
2023/03/06 00:33:29;;;;;;;2.65;0.90;;;1.80;99.90;;;;;;5077856;28;20051;-65
2023/03/06 00:35:56;;;;;;;2.95;1.00;;;1.90;99.90;;;;;;5078580;28;20491;-64
2023/03/06 00:38:26;;;;;;;2.70;1.40;;;1.90;99.90;;;;;;5096269;28;20059;-64
2023/03/06 00:40:53;;;;;;;2.40;1.10;;;1.90;99.90;;;;;;5095460;28;20051;-63
2023/03/06 00:43:20;;;;;;;1.90;1.08;;;1.90;99.90;;;;;;5096243;28;20327;-64
2023/03/06 00:45:47;;;;;;;1.90;1.10;;;2.00;99.90;;;;;;5095956;28;20058;-64
2023/03/06 00:48:15;;;;;;;3.67;1.10;;;2.10;99.90;;;;;;5090333;28;20106;-68
2023/03/06 00:50:42;;;;;;;3.00;1.63;;;2.20;99.90;;;;;;5097054;28;20057;-68
2023/03/06 00:53:09;;;;;;;1.80;1.00;;;2.20;99.90;;;;;;5093205;28;20108;-67
2023/03/06 00:55:36;;;;;;;2.33;1.20;;;2.30;99.90;;;;;;5096453;28;20062;-66
2023/03/06 00:58:03;;;;;;;1.98;1.10;;;2.30;99.90;;;;;;5096340;28;20047;-67
2023/03/06 01:00:30;;;;;;;4.80;1.35;;;2.30;99.90;;;;;;5095522;28;20047;-66
2023/03/06 01:02:57;;;;;;;3.45;1.00;;;2.30;99.90;;;;;;5095994;28;20055;-67
2023/03/06 01:05:25;;;;;;;5.13;1.20;;;2.30;99.90;;;;;;5096086;28;20458;-67
2023/03/06 01:07:52;;;;;;;2.72;1.10;;;2.30;99.90;;;;;;5095128;28;20101;-66
2023/03/06 01:10:19;;;;;;;2.00;1.02;;;2.30;99.90;;;;;;5095560;28;20479;-67
2023/03/06 01:12:46;;;;;;;3.00;1.20;;;2.30;99.90;;;;;;5095826;28;20052;-67
2023/03/06 01:15:13;;;;;;;2.75;1.15;;;2.30;99.90;;;;;;5095294;28;20445;-67
2023/03/06 01:17:40;;;;;;;2.88;1.40;;;2.30;99.90;;;;;;5095815;28;20044;-67
2023/03/06 01:20:08;;;;;;;1.85;0.95;;;2.30;99.90;;;;;;5095501;28;20535;-68
2023/03/06 01:22:37;;;;;;;3.45;1.27;;;2.30;99.90;;;;;;5077193;28;20438;-68
2023/03/06 01:25:04;;;;;;;2.95;1.13;;;2.40;99.90;;;;;;5075370;28;20452;-65
2023/03/06 01:27:31;;;;;;;3.28;1.20;;;2.30;99.90;;;;;;5077763;28;20063;-65
2023/03/06 01:29:58;;;;;;;2.33;1.10;;;2.40;99.90;;;;;;5092661;28;20483;-64
2023/03/06 01:32:25;;;;;;;2.47;1.38;;;2.40;99.90;;;;;;5077565;28;20446;-64
2023/03/06 01:34:52;;;;;;;2.55;1.60;;;2.50;99.90;;;;;;5095189;28;20047;-64
2023/03/06 01:37:19;;;;;;;2.53;1.20;;;2.50;99.90;;;;;;5094859;28;20130;-65
2023/03/06 01:39:47;;;;;;;3.55;1.60;;;2.50;99.90;;;;;;5092537;28;20089;-64
2023/03/06 01:42:14;;;;;;;5.07;1.40;;;2.50;99.90;;;;;;5076393;28;20527;-64
2023/03/06 01:44:59;;;;;;;3.92;1.58;;;2.60;99.90;;;;;;5095331;28;20113;-65
2023/03/06 01:47:26;;;;;;;2.05;1.30;;;2.60;99.90;;;;;;5074854;28;20090;-64
2023/03/06 01:49:53;;;;;;;2.63;1.50;;;2.60;99.90;;;;;;5076285;28;20102;-64
2023/03/06 01:52:25;;;;;;;3.42;1.52;;;2.60;99.90;;;;;;5075126;28;20052;-64
2023/03/06 01:54:58;;;;;;;3.30;1.27;;;2.60;99.90;;;;;;5095066;28;20102;-64
2023/03/06 01:57:28;;;;;;;2.75;1.50;;;2.60;99.90;;;;;;5094492;28;20097;-64
2023/03/06 02:00:02;;;;;;;3.15;1.50;;;2.60;99.90;;;;;;5094707;28;20043;-64
2023/03/06 02:02:29;;;;;;;3.25;1.38;;;2.60;99.90;;;;;;5093417;28;20055;-64
2023/03/06 02:04:56;;;;;;;2.13;1.15;;;2.60;99.90;;;;;;5076358;28;20043;-64
2023/03/06 02:07:24;;;;;;;3.15;1.30;;;2.60;99.90;;;;;;5094931;28;20055;-64
2023/03/06 02:09:51;;;;;;;2.88;1.58;;;2.70;99.90;;;;;;5092281;28;20062;-64
2023/03/06 02:12:21;;;;;;;2.22;1.38;;;2.50;99.90;;;;;;5094209;28;20044;-65
2023/03/06 02:14:49;;;;;;;1.55;1.00;;;2.50;99.90;;;;;;5094530;28;20048;-63
2023/03/06 02:17:18;;;;;;;3.97;1.15;;;2.40;99.90;;;;;;5076134;28;20385;-65
2023/03/06 02:19:52;;;;;;;3.20;1.42;;;2.20;99.90;;;;;;5094525;28;20051;-65
2023/03/06 02:22:19;;;;;;;2.00;1.00;;;2.10;99.90;;;;;;5075395;28;20048;-64
2023/03/06 02:24:51;;;;;;;1.77;1.00;;;2.00;99.90;;;;;;5093643;28;20048;-64
2023/03/06 02:27:20;;;;;;;1.42;0.93;;;2.10;99.90;;;;;;5094333;28;20047;-65
2023/03/06 02:29:47;;;;;;;1.30;0.90;;;1.90;99.90;;;;;;5075847;28;20089;-64
2023/03/06 02:32:14;;;;;;;1.25;0.85;;;1.90;99.90;;;;;;5093671;28;20113;-64
2023/03/06 02:34:54;;;;;;;2.05;0.80;;;1.90;99.90;;;;;;5076375;28;20458;-64
2023/03/06 02:37:22;;;;;;;1.97;1.07;;;1.80;99.90;;;;;;5094201;28;20048;-64
2023/03/06 02:39:56;;;;;;;1.60;0.90;;;1.80;99.90;;;;;;5093255;28;20097;-64
2023/03/06 02:42:27;;;;;;;1.40;0.90;;;1.80;99.90;;;;;;5092476;28;20557;-64
2023/03/06 02:44:57;;;;;;;1.80;1.10;;;1.80;99.90;;;;;;5075995;28;20411;-64
2023/03/06 02:47:23;;;;;;;2.08;1.00;;;1.70;99.90;;;;;;5093480;28;20699;-64
2023/03/06 02:49:50;;;;;;;2.90;1.00;;;1.80;99.90;;;;;;5075250;28;20040;-64
2023/03/06 02:52:17;;;;;;;1.30;0.80;;;1.80;99.90;;;;;;5093254;28;20559;-65
2023/03/06 02:54:44;;;;;;;1.98;1.00;;;1.80;99.90;;;;;;5093292;28;20052;-64
2023/03/06 02:57:11;;;;;;;1.80;1.02;;;2.00;99.90;;;;;;5075913;28;20424;-65
2023/03/06 02:59:40;;;;;;;2.15;0.85;;;1.80;99.90;;;;;;5093112;28;20047;-65
2023/03/06 03:02:07;;;;;;;1.55;1.00;;;1.90;99.90;;;;;;5073233;28;20055;-65
2023/03/06 03:04:34;;;;;;;2.70;1.48;;;1.90;99.90;;;;;;5075304;28;20040;-64
2023/03/06 03:07:00;;;;;;;2.65;1.17;;;1.80;99.90;;;;;;5073175;28;20060;-64
2023/03/06 03:09:28;;;;;;;1.70;1.15;;;1.90;99.90;;;;;;5093426;28;20446;-64
2023/03/06 03:11:55;;;;;;;2.13;1.15;;;1.90;99.90;;;;;;5093767;28;20119;-64
2023/03/06 03:14:23;;;;;;;2.10;1.00;;;1.90;99.90;;;;;;5074951;28;20048;-65
2023/03/06 03:16:52;;;;;;;3.10;1.20;;;2.00;99.90;;;;;;5093443;28;20044;-65
2023/03/06 03:19:18;;;;;;;3.35;1.20;;;1.90;99.90;;;;;;5074961;28;20058;-64
2023/03/06 03:21:45;;;;;;;2.05;1.00;;;1.90;99.90;;;;;;5074970;28;20044;-65
2023/03/06 03:24:12;;;;;;;2.03;1.30;;;1.90;99.90;;;;;;5073067;28;20452;-65
2023/03/06 03:26:39;;;;;;;1.75;1.10;;;1.80;99.90;;;;;;5093335;28;20145;-65
2023/03/06 03:29:06;;;;;;;2.17;1.08;;;1.90;99.90;;;;;;5092629;28;20043;-65
2023/03/06 03:31:33;;;;;;;1.95;1.10;;;1.80;99.90;;;;;;5074786;28;20040;-65
2023/03/06 03:34:01;;;;;;;1.83;1.08;;;1.90;99.90;;;;;;5075411;28;20109;-65
2023/03/06 03:36:28;;;;;;;2.50;1.30;;;1.80;99.90;;;;;;5074603;28;20101;-65
2023/03/06 03:38:56;;;;;;;2.00;1.10;;;1.70;99.90;;;;;;5093195;28;20051;-65
2023/03/06 03:41:23;;;;;;;1.77;1.10;;;1.70;99.90;;;;;;5093073;28;20036;-64
2023/03/06 03:43:50;;;;;;;3.38;1.48;;;1.70;99.90;;;;;;5092554;28;20462;-64
2023/03/06 03:46:17;;;;;;;2.92;1.20;;;1.60;99.90;;;;;;5075029;28;20117;-65
2023/03/06 03:48:44;;;;;;;1.88;1.15;;;1.60;99.90;;;;;;5074428;28;20056;-64
2023/03/06 03:51:15;;;;;;;2.10;1.10;;;1.50;99.90;;;;;;5092985;28;20047;-64
2023/03/06 03:53:43;;;;;;;2.42;1.40;;;1.50;99.90;;;;;;5074997;28;20551;-65
2023/03/06 03:56:10;;;;;;;2.38;0.90;;;1.40;99.90;;;;;;5074384;28;20567;-64
2023/03/06 03:58:37;;;;;;;3.28;1.30;;;1.30;99.90;;;;;;5074806;28;20492;-64
2023/03/06 04:01:04;;;;;;;4.10;1.40;;;1.30;99.90;;;;;;5092841;28;20055;-64
2023/03/06 04:03:31;;;;;;;2.08;1.20;;;1.20;99.90;;;;;;5073894;28;20055;-64
2023/03/06 04:05:59;;;;;;;1.75;1.20;;;1.30;99.90;;;;;;5092781;28;20040;-64
2023/03/06 04:08:27;;;;;;;2.10;1.10;;;1.20;99.90;;;;;;5074771;28;20093;-65
2023/03/06 04:10:54;;;;;;;3.03;1.25;;;1.20;99.90;;;;;;5092154;28;20457;-64
2023/03/06 04:13:22;;;;;;;2.75;1.20;;;1.20;99.90;;;;;;5093866;28;20479;-64
2023/03/06 04:15:51;;;;;;;2.97;1.17;;;1.30;99.90;;;;;;5111779;28;20491;-64
2023/03/06 04:18:19;;;;;;;3.38;1.40;;;1.10;99.90;;;;;;5072161;28;20044;-65
2023/03/06 04:20:47;;;;;;;2.40;1.20;;;1.00;99.90;;;;;;5092790;28;20098;-64
2023/03/06 04:23:16;;;;;;;2.20;1.33;;;1.20;99.90;;;;;;5074779;28;20052;-64
2023/03/06 04:25:45;;;;;;;2.45;1.33;;;1.10;99.90;;;;;;5091963;28;20097;-64
2023/03/06 04:28:12;;;;;;;2.22;1.23;;;1.10;99.90;;;;;;5092491;28;20054;-64
2023/03/06 04:30:39;;;;;;;2.30;1.33;;;1.10;99.90;;;;;;5092279;28;20048;-64
2023/03/06 04:33:06;;;;;;;4.25;1.30;;;1.00;99.90;;;;;;5073916;28;20044;-64
2023/03/06 04:35:33;;;;;;;3.38;1.50;;;1.00;99.90;;;;;;5092424;28;20048;-64
2023/03/06 04:38:00;;;;;;;2.53;1.38;;;1.10;99.90;;;;;;5093000;28;20047;-63
2023/03/06 04:40:30;;;;;;;1.88;1.17;;;1.10;99.90;;;;;;5111487;28;20055;-63
2023/03/06 04:43:00;;;;;;;2.40;1.33;;;1.10;99.90;;;;;;5090897;28;20097;-64
2023/03/06 04:45:28;;;;;;;3.53;1.60;;;1.20;99.90;;;;;;5073912;28;20101;-64
2023/03/06 04:47:55;;;;;;;2.65;1.48;;;1.10;99.90;;;;;;5074622;28;20060;-63
2023/03/06 04:50:23;;;;;;;2.53;1.52;;;1.30;99.90;;;;;;5089968;28;20043;-64
2023/03/06 04:52:50;;;;;;;5.80;1.50;;;1.20;99.90;;;;;;5091785;28;20129;-64
2023/03/06 04:55:19;;;;;;;4.78;1.88;;;1.20;99.90;;;;;;5074125;28;20052;-64
2023/03/06 04:57:46;;;;;;;3.15;1.85;;;1.20;99.90;;;;;;5092568;28;20138;-65
2023/03/06 05:00:18;;;;;;;3.47;1.80;;;1.20;99.90;;;;;;5091659;28;20422;-65
2023/03/06 05:02:45;;;;;;;3.67;1.55;;;1.20;99.90;;;;;;5090285;28;20097;-65
2023/03/06 05:05:13;;;;;;;2.97;1.83;;;1.30;99.90;;;;;;5092239;28;20044;-63
2023/03/06 05:07:40;;;;;;;3.33;1.83;;;1.20;99.90;;;;;;5073681;28;20109;-63
2023/03/06 05:10:11;;;;;;;3.85;2.05;;;1.30;99.90;;;;;;5092135;28;20044;-64
2023/03/06 05:12:38;;;;;;;4.15;2.22;;;1.30;99.90;;;;;;5092270;28;20040;-64
2023/03/06 05:15:06;;;;;;;8.70;2.25;;;1.30;99.90;;;;;;5076388;28;20491;-64
2023/03/06 05:17:35;;;;;;;3.25;1.70;;;1.30;99.90;;;;;;5095627;28;20384;-65
2023/03/06 05:20:04;;;;;;;6.47;2.17;;;1.30;99.90;;;;;;5095531;28;20048;-64
2023/03/06 05:22:31;;;;;;;5.03;2.43;;;1.20;99.90;;;;;;5077702;28;20043;-65
2023/03/06 05:24:58;;;;;;;4.00;2.28;;;1.30;99.90;;;;;;5095568;28;20548;-65
2023/03/06 05:27:25;;;;;;;3.67;2.00;;;1.20;99.90;;;;;;5094928;28;20052;-64
2023/03/06 05:29:53;;;;;;;4.10;2.20;;;1.20;99.90;;;;;;5077074;28;20093;-65
2023/03/06 05:32:20;;;;;;;5.15;2.13;;;1.20;99.90;;;;;;5077232;28;20127;-64
2023/03/06 05:34:48;;;;;;;3.67;2.30;;;1.20;99.90;;;;;;5076966;28;20132;-65
2023/03/06 05:37:15;;;;;;;3.38;1.95;;;1.20;99.90;;;;;;5077396;28;20089;-64
2023/03/06 05:39:42;;;;;;;4.93;2.10;;;1.20;99.90;;;;;;5077196;28;20495;-64
2023/03/06 05:42:09;;;;;;;5.75;2.22;;;1.20;99.90;;;;;;5085911;28;20454;-65
2023/03/06 05:44:37;;;;;;;4.50;2.60;;;1.20;99.90;;;;;;5066628;28;20052;-64
2023/03/06 05:47:04;;;;;;;5.38;2.70;;;1.20;99.90;;;;;;5089527;28;20048;-64
2023/03/06 05:49:36;;;;;;;3.88;2.10;;;1.30;99.90;;;;;;5068453;28;20462;-64
2023/03/06 05:52:05;;;;;;;3.60;2.25;;;1.30;99.90;;;;;;5072943;28;20089;-67
2023/03/06 05:54:34;;;;;;;3.60;1.87;;;1.30;99.90;;;;;;5071446;28;20048;-63
2023/03/06 05:57:03;;;;;;;3.63;2.03;;;1.40;99.90;;;;;;5089455;28;20052;-64
2023/03/06 05:59:31;;;;;;;4.00;2.03;;;1.20;99.90;;;;;;5093258;28;20078;-64
2023/03/06 06:01:59;;;;;;;4.43;2.20;;;1.20;99.90;;;;;;5089419;28;20551;-63
2023/03/06 06:04:26;;;;;;;3.70;1.90;;;1.30;99.90;;;;;;5092759;28;20051;-64
2023/03/06 06:06:55;;;;;;;3.40;1.60;;;1.10;99.90;;;;;;5092372;28;20051;-63
2023/03/06 06:09:23;;;;;;;3.00;1.80;;;1.00;99.90;;;;;;5086182;28;20059;-63
2023/03/06 06:11:54;;;;;;;3.20;1.92;;;1.00;99.90;;;;;;5089091;28;20097;-64
2023/03/06 06:14:21;;;;;;;3.85;2.13;;;1.10;99.90;;;;;;5089828;28;20458;-64
2023/03/06 06:16:49;;;;;;;5.00;2.22;;;0.80;99.90;;;;;;5070854;28;20061;-64
2023/03/06 06:19:19;;;;;;;4.90;2.65;;;0.70;99.90;;;;;;5088663;28;20557;-64
2023/03/06 06:21:47;;;;;;;4.97;2.13;;;0.70;99.90;;;;;;5086349;28;20488;-64
2023/03/06 06:24:15;;;;;;;3.40;2.10;;;0.60;99.90;;;;;;5092148;28;20385;-64
2023/03/06 06:26:43;;;;;;;3.20;2.17;;;0.60;99.90;;;;;;5088601;28;20048;-64
2023/03/06 06:29:12;;;;;;;3.00;2.10;;;0.50;99.90;;;;;;5092716;28;20794;-64
2023/03/06 06:31:40;;;;;;;5.40;2.35;;;0.50;99.90;;;;;;5089171;28;20381;-63
2023/03/06 06:34:09;;;;;;;5.13;2.10;;;0.50;99.90;;;;;;5085606;28;20047;-64
2023/03/06 06:36:36;;;;;;;3.63;1.98;;;0.50;99.90;;;;;;5087930;28;20097;-63
2023/03/06 06:39:03;;;;;;;4.45;2.28;;;0.40;99.90;;;;;;5088749;28;20071;-64
2023/03/06 06:41:30;;;;;;;3.70;2.78;;;0.40;99.90;;;;;;5090027;28;20404;-63
2023/03/06 06:43:59;;;;;;;4.53;3.08;;;0.40;99.90;;;;;;5090047;28;20051;-63
2023/03/06 06:46:27;;;;;;;7.00;4.13;;;0.40;99.90;;;;;;5068195;28;20056;-63
2023/03/06 06:48:54;;;;;;;7.05;4.47;;;0.50;99.90;;;;;;5087312;28;20051;-63
2023/03/06 06:51:22;;;;;;;8.38;4.88;;;0.50;99.90;;;;;;5069991;28;20052;-64
2023/03/06 06:53:51;;;;;;;6.15;4.90;;;0.50;99.90;;;;;;5090596;28;20089;-64
2023/03/06 06:56:17;;;;;;;6.88;4.55;;;0.50;99.90;;;;;;5069353;28;20056;-64
2023/03/06 06:58:44;;;;;;;8.73;4.60;;;0.50;99.90;;;;;;5085849;28;20093;-63
2023/03/06 07:01:13;;;;;;;4.80;3.75;;;0.60;99.90;;;;;;5069262;28;20055;-65
2023/03/06 07:03:41;;;;;;;7.13;4.30;;;0.60;99.90;;;;;;5064843;28;20570;-64
2023/03/06 07:06:09;;;;;;;8.23;5.20;;;0.70;99.90;;;;;;5065499;28;20044;-64
2023/03/06 07:08:35;;;;;;;5.75;4.38;;;0.70;99.90;;;;;;5069419;28;20056;-64
2023/03/06 07:11:07;;;;;;;6.40;3.85;;;1.00;99.90;;;;;;5072798;28;20049;-64
2023/03/06 07:13:34;;;;;;;5.47;3.28;;;0.90;99.90;;;;;;5090085;28;20048;-64
2023/03/06 07:16:01;;;;;;;4.40;2.83;;;1.00;99.90;;;;;;5091968;28;20104;-64
2023/03/06 07:18:30;;;;;;;6.15;3.10;;;1.10;99.90;;;;;;5070165;28;20048;-67
2023/03/06 07:20:57;;;;;;;4.60;3.47;;;1.20;99.90;;;;;;5072109;28;20097;-64
2023/03/06 07:23:25;;;;;;;4.07;2.95;;;1.50;99.90;;;;;;5070016;28;20048;-63
2023/03/06 07:25:52;;;;;;;4.40;3.03;;;1.90;99.90;;;;;;5072108;28;20056;-63
2023/03/06 07:28:19;;;;;;;7.40;2.70;;;2.30;99.90;;;;;;5071405;28;20434;-63
2023/03/06 07:30:46;;;;;;;6.43;3.05;;;2.70;99.90;;;;;;5072651;28;20463;-63
2023/03/06 07:33:14;;;;;;;5.35;2.65;;;3.50;99.90;;;;;;5072877;28;20048;-64
2023/03/06 07:35:42;;;;;;;3.40;2.30;;;4.20;99.90;;;;;;5072303;28;20044;-64
2023/03/06 07:38:09;;;;;;;3.30;2.13;;;5.30;99.90;;;;;;5072398;28;20048;-65
2023/03/06 07:40:37;;;;;;;5.22;2.53;;;6.20;99.90;;;;;;5071480;28;20052;-65
2023/03/06 07:43:04;;;;;;;2.83;2.05;;;7.10;99.90;;;;;;5072010;28;20463;-65
2023/03/06 07:45:32;;;;;;;2.88;2.15;;;7.50;99.90;;;;;;5072822;28;20416;-65
2023/03/06 07:47:59;;;;;;;3.70;1.90;;;7.50;99.90;;;;;;5071831;28;20048;-64
2023/03/06 07:50:26;;;;;;;11.82;2.80;;;7.70;99.90;;;;;;5072739;28;20132;-65
2023/03/06 07:52:55;;;;;;;2.88;1.70;;;8.10;99.90;;;;;;5071105;28;20094;-65
2023/03/06 07:55:21;;;;;;;3.88;1.67;;;8.60;99.90;;;;;;5072142;28;20053;-64
2023/03/06 07:57:50;;;;;;;2.47;1.50;;;8.50;99.90;;;;;;5072377;28;20531;-64
2023/03/06 08:00:18;;;;;;;4.03;2.17;;;8.30;99.90;;;;;;5072462;28;20090;-64
2023/03/06 08:02:44;;;;;;;3.55;1.73;;;8.70;99.90;;;;;;5090420;28;20098;-65
2023/03/06 08:05:14;;;;;;;2.33;1.50;;;9.40;99.90;;;;;;5090627;28;20039;-65
2023/03/06 08:07:41;;;;;;;2.47;1.50;;;10.30;99.90;;;;;;5092639;28;20475;-65
2023/03/06 08:10:12;;;;;;;2.80;1.30;;;10.60;99.90;;;;;;5074012;28;20507;-66
2023/03/06 08:12:39;;;;;;;4.35;1.20;;;10.80;99.90;;;;;;5090441;28;20059;-65
2023/03/06 08:15:09;;;;;;;2.35;1.30;;;10.90;99.90;;;;;;5092449;28;20048;-65
2023/03/06 08:17:37;;;;;;;2.70;1.48;;;10.60;99.90;;;;;;5090347;28;20044;-65
2023/03/06 08:20:05;;;;;;;3.83;1.75;;;9.70;99.90;;;;;;5111429;28;20051;-65
2023/03/06 08:22:33;;;;;;;2.10;1.10;;;8.60;99.90;;;;;;5093384;28;20089;-65
2023/03/06 08:25:00;;;;;;;1.88;1.17;;;7.80;99.90;;;;;;5093256;28;20462;-65
2023/03/06 08:27:31;;;;;;;3.78;1.40;;;7.40;99.90;;;;;;5111651;28;20043;-66
2023/03/06 08:29:58;;;;;;;4.20;1.35;;;6.80;99.90;;;;;;5111458;28;20460;-65
2023/03/06 08:32:26;;;;;;;1.95;1.10;;;6.30;99.90;;;;;;5072161;28;20055;-65
2023/03/06 08:34:53;;;;;;;2.92;1.00;;;5.90;99.90;;;;;;5092327;28;20144;-65
2023/03/06 08:37:20;;;;;;;2.65;1.40;;;5.90;99.90;;;;;;5091898;28;20094;-64
2023/03/06 08:39:46;;;;;;;2.85;1.52;;;6.00;99.90;;;;;;5074367;28;20093;-65
2023/03/06 08:42:14;;;;;;;2.60;1.20;;;6.70;99.90;;;;;;5092332;28;20056;-65
2023/03/06 08:44:43;;;;;;;1.92;1.25;;;7.40;99.90;;;;;;5111064;28;20051;-65
2023/03/06 08:47:10;;;;;;;2.20;1.15;;;8.70;99.90;;;;;;5111515;28;20096;-65
2023/03/06 08:49:38;;;;;;;2.40;1.20;;;9.60;99.90;;;;;;5113443;28;20047;-66
2023/03/06 08:52:05;;;;;;;3.05;1.40;;;10.10;99.90;;;;;;5114682;28;20046;-65
2023/03/06 08:54:34;;;;;;;4.70;1.20;;;10.70;99.90;;;;;;5115312;28;20093;-64
2023/03/06 08:57:01;;;;;;;2.78;1.25;;;11.30;99.90;;;;;;5097430;28;20122;-65
2023/03/06 08:59:28;;;;;;;4.28;1.42;;;12.00;99.90;;;;;;5114447;28;20433;-65
2023/03/06 09:01:56;;;;;;;4.03;1.45;;;12.00;99.90;;;;;;5115276;28;20043;-66
2023/03/06 09:04:23;;;;;;;4.07;1.00;;;12.50;99.90;;;;;;5115021;28;20062;-65
2023/03/06 09:06:50;;;;;;;4.85;1.48;;;13.30;99.90;;;;;;5096339;28;20101;-66
2023/03/06 09:09:17;;;;;;;3.58;1.20;;;13.60;99.90;;;;;;5114583;28;20118;-65
2023/03/06 09:11:44;;;;;;;5.18;1.40;;;13.80;99.90;;;;;;5096767;28;20058;-66
2023/03/06 09:14:11;;;;;;;2.40;1.30;;;14.20;99.90;;;;;;5095045;28;20043;-66
2023/03/06 09:16:38;;;;;;;4.90;1.23;;;14.50;99.90;;;;;;5077835;28;20052;-66
2023/03/06 09:19:06;;;;;;;2.22;1.02;;;13.80;98.80;;;;;;5095260;28;20093;-66
2023/03/06 09:21:33;;;;;;;4.07;1.20;;;13.10;99.90;;;;;;5095092;28;20044;-66
2023/03/06 09:24:00;;;;;;;3.00;1.10;;;12.40;99.90;;;;;;5095420;28;20101;-66
2023/03/06 09:26:27;;;;;;;3.47;1.05;;;12.70;99.70;;;;;;5077041;28;20536;-66
2023/03/06 09:28:54;;;;;;;2.95;1.00;;;12.70;99.90;;;;;;5095299;28;20101;-66
2023/03/06 09:31:21;;;;;;;2.70;1.10;;;12.50;99.90;;;;;;5093080;28;20048;-66
2023/03/06 09:33:48;;;;;;;3.33;1.15;;;12.40;99.00;;;;;;5094772;28;20054;-66
2023/03/06 09:36:18;;;;;;;4.28;1.13;;;11.30;99.90;;;;;;5093250;28;20043;-65
2023/03/06 09:38:47;;;;;;;3.67;1.00;;;11.70;99.90;;;;;;5076976;28;20051;-65
2023/03/06 09:41:28;;;;;;;2.10;1.02;;;11.30;99.90;;;;;;5076565;28;20059;-66
2023/03/06 09:44:03;;;;;;;3.63;1.27;;;11.70;99.90;;;;;;5095146;28;20047;-65
2023/03/06 09:46:42;;;;;;;3.33;1.02;;;11.60;99.90;;;;;;5095141;28;20089;-65
2023/03/06 09:49:38;;;;;;;2.58;0.90;;;11.80;99.20;;;;;;5092335;28;20097;-66
2023/03/06 09:52:27;;;;;;;4.22;1.15;;;13.20;96.50;;;;;;5093812;28;20399;-66
2023/03/06 09:54:56;;;;;;;2.90;1.00;;;14.10;94.10;;;;;;5092852;28;20052;-66
2023/03/06 09:57:26;;;;;;;2.75;0.73;;;14.10;93.00;;;;;;5092898;28;20408;-66
2023/03/06 09:59:56;;;;;;;1.80;0.80;;;14.40;91.30;;;;;;5094259;28;20462;-65
2023/03/06 10:02:31;;;;;;;2.40;1.05;;;13.80;90.80;;;;;;5072450;28;20135;-65
2023/03/06 10:05:02;;;;;;;2.05;0.70;;;13.70;90.90;;;;;;5058229;28;20099;-66
2023/03/06 10:07:43;;;;;;;4.53;1.20;;;13.00;89.10;;;;;;5061946;28;20071;-65
2023/03/06 10:10:15;;;;;;;;;;;13.60;90.70;;;;;;5070317;28;20953;-65
2023/03/06 10:12:49;;;;;;;3.85;0.80;;;13.60;88.80;;;;;;5069914;28;19970;-66
2023/03/06 10:15:19;;;;;;;2.28;0.75;;;14.00;89.70;;;;;;5067278;28;20443;-66
2023/03/06 10:17:46;;;;;;;2.47;0.77;;;14.80;85.50;;;;;;5068997;28;20068;-66
2023/03/06 10:20:18;;;;;;;5.10;0.93;;;14.70;81.40;;;;;;5070345;28;20048;-66
2023/03/06 10:23:00;;;;;;;2.45;0.90;;;15.30;80.70;;;;;;5069251;28;20390;-66
2023/03/06 10:25:29;;;;;;;6.03;0.88;;;15.50;83.00;;;;;;5066651;28;20427;-66
2023/03/06 10:28:00;;;;;;;2.08;0.70;;;15.70;81.40;;;;;;5072613;28;20049;-66
2023/03/06 10:30:38;;;;;;;4.97;0.90;;;15.60;80.00;;;;;;5062467;28;20101;-65
2023/03/06 10:33:15;;;;;;;2.67;0.70;;;15.50;82.50;;;;;;5067992;28;20040;-66
2023/03/06 10:35:48;;;;;;;3.97;0.90;;;15.30;79.50;;;;;;5064510;28;20505;-66
2023/03/06 10:38:20;;;;;;;2.88;0.93;;;15.60;78.70;;;;;;5065042;28;20068;-66
2023/03/06 10:41:00;;;;;;;3.67;1.00;;;16.00;81.70;;;;;;5072156;28;20053;-66
2023/03/06 10:43:27;;;;;;;3.33;0.88;;;16.80;77.90;;;;;;5066269;28;20045;-67
2023/03/06 10:45:54;;;;;;;1.90;0.90;;;16.50;77.80;;;;;;5071830;28;20052;-66
2023/03/06 10:48:23;;;;;;;1.92;0.65;;;17.10;77.30;;;;;;5067363;28;20060;-66
2023/03/06 10:50:50;;;;;;;3.47;0.70;;;15.30;76.80;;;;;;5067528;28;20523;-65
2023/03/06 10:53:25;;;;;;;2.28;0.88;;;14.20;79.30;;;;;;5064947;28;20048;-66
2023/03/06 10:55:55;;;;;;;2.28;0.60;;;13.30;80.70;;;;;;5066489;28;20048;-66
2023/03/06 10:58:23;;;;;;;;;;;13.00;82.00;;;;;;5068003;28;20412;-66
2023/03/06 11:01:06;;;;;;;2.90;0.85;;;12.10;79.90;;;;;;5068519;28;19997;-66
2023/03/06 11:03:34;;;;;;;4.13;0.75;;;12.00;83.20;;;;;;5091281;28;20068;-66
2023/03/06 11:06:10;;;;;;;4.15;0.70;;;11.40;85.30;;;;;;5073636;28;20087;-66
2023/03/06 11:08:40;;;;;;;2.53;0.73;;;11.40;84.70;;;;;;5092126;28;20503;-65
2023/03/06 11:11:08;;;;;;;3.85;0.80;;;11.20;86.60;;;;;;5073090;28;20044;-64
2023/03/06 11:13:37;;;;;;;4.93;1.33;;;12.10;82.10;;;;;;5091689;28;20040;-65
2023/03/06 11:16:07;;;;;;;3.25;0.82;;;13.30;81.20;;;;;;5091747;28;20069;-65
2023/03/06 11:18:37;;;;;;;1.90;0.80;;;13.70;80.50;;;;;;5074309;28;20052;-66
2023/03/06 11:21:07;;;;;;;4.88;0.80;;;14.80;80.20;;;;;;5089491;28;20052;-66
2023/03/06 11:23:42;;;;;;;2.05;0.82;;;14.90;75.90;;;;;;5073931;28;20109;-66
2023/03/06 11:26:30;;;;;;;2.92;0.90;;;15.80;78.50;;;;;;5075746;28;20110;-67
2023/03/06 11:29:07;;;;;;;4.30;1.02;;;17.30;75.00;;;;;;5090854;28;20131;-66
2023/03/06 11:31:37;;;;;;;1.52;0.80;;;16.70;72.00;;;;;;5074818;28;20079;-64
2023/03/06 11:34:09;;;;;;;1.38;0.52;;;16.90;73.50;;;;;;5071232;28;20048;-65
2023/03/06 11:36:41;;;;;;;2.38;0.73;;;17.90;74.50;;;;;;5092056;28;20036;-65
2023/03/06 11:39:24;;;;;;;1.85;0.80;;;17.30;70.00;;;;;;5075781;28;20120;-66
2023/03/06 11:42:00;;;;;;;2.55;1.05;;;16.40;71.60;;;;;;5089301;28;20418;-64
2023/03/06 11:44:36;;;;;;;2.63;0.65;;;15.50;74.40;;;;;;5090196;28;20093;-65
2023/03/06 11:47:09;;;;;;;3.92;0.77;;;14.10;73.80;;;;;;5091467;28;20048;-64
2023/03/06 11:49:41;;;;;;;1.45;0.60;;;12.70;74.80;;;;;;5091619;28;20043;-66
2023/03/06 11:52:18;;;;;;;1.55;0.70;;;12.30;77.50;;;;;;5075519;28;20048;-66
2023/03/06 11:54:51;;;;;;;1.75;0.77;;;13.70;77.00;;;;;;5069854;28;20470;-67
2023/03/06 11:57:22;;;;;;;3.80;1.08;;;15.00;77.50;;;;;;5085395;28;20093;-66
2023/03/06 12:00:14;;;;;;;3.40;1.35;;;16.20;73.60;;;;;;5071939;28;20048;-67
2023/03/06 12:03:03;;;;;;;1.75;0.65;;;17.80;69.60;;;;;;5074004;28;20451;-66
2023/03/06 12:05:36;;;;;;;2.67;0.80;;;19.10;67.90;;;;;;5069381;28;20059;-65
2023/03/06 12:08:33;;;;;;;3.10;0.70;;;19.20;71.00;;;;;;5087834;28;20048;-66
2023/03/06 12:11:10;;;;;;;2.53;0.80;;;19.60;70.00;;;;;;5068384;28;20048;-67
2023/03/06 12:14:04;;;;;;;3.63;0.90;;;18.80;70.50;;;;;;5083652;28;20047;-66
2023/03/06 12:16:52;;;;;;;2.22;0.80;;;18.20;68.60;;;;;;5084744;28;20043;-66
2023/03/06 12:19:35;;;;;;;3.50;0.90;;;16.90;70.90;;;;;;5084323;28;20094;-65
2023/03/06 12:22:15;;;;;;;5.13;1.17;;;16.30;70.80;;;;;;5081778;28;20044;-66
2023/03/06 12:25:06;;;;;;;1.60;0.70;;;15.90;72.70;;;;;;5069370;28;20112;-66
2023/03/06 12:27:44;;;;;;;2.72;0.88;;;15.80;70.40;;;;;;5087730;28;20040;-66
2023/03/06 12:30:32;;;;;;;11.93;1.20;;;15.40;70.80;;;;;;5073153;28;20060;-65
2023/03/06 12:33:10;;;;;;;2.25;0.70;;;15.20;71.30;;;;;;5093640;28;20047;-66
2023/03/06 12:35:53;;;;;;;2.28;0.70;;;14.50;72.30;;;;;;5089945;28;20135;-65
2023/03/06 12:39:00;;;;;;;1.88;0.55;;;14.20;73.40;;;;;;5069986;28;20074;-65
2023/03/06 12:41:37;;;;;;;1.75;0.80;;;14.00;71.20;;;;;;5084434;28;20123;-65
2023/03/06 12:44:39;;;;;;;1.80;0.75;;;13.60;71.90;;;;;;5091922;28;20541;-66
2023/03/06 12:47:10;;;;;;;2.15;0.70;;;12.40;73.40;;;;;;5075210;28;20043;-66
2023/03/06 12:49:41;;;;;;;5.00;0.90;;;12.30;75.40;;;;;;5099120;28;20109;-66
2023/03/06 12:52:09;;;;;;;;;;;12.40;75.80;;;;;;5075643;28;20060;-66
2023/03/06 12:54:38;;;;;;;2.90;0.80;;;12.40;73.60;;;;;;5076350;28;19965;-66
2023/03/06 12:57:07;;;;;;;2.00;0.63;;;12.30;76.20;;;;;;5094849;28;20385;-66
2023/03/06 12:59:36;;;;;;;2.55;0.80;;;11.60;77.50;;;;;;5092474;28;20121;-66
2023/03/06 13:05:21;;;;;;;3.70;0.90;;;11.80;78.00;;;;;;5128935;27;20905;-66
2023/03/06 13:08:00;;;;;;;2.58;0.80;;;11.10;78.00;;;;;;5127125;28;20096;-66
2023/03/06 13:10:30;;;;;;;2.92;0.80;;;11.00;78.60;;;;;;5127056;28;20043;-66
2023/03/06 13:12:59;;;;;;;5.03;1.25;;;11.10;76.20;;;;;;5127327;28;20092;-66